createdAt,value
2019-04-23T00:01:13.307Z,4.25
2019-04-23T00:03:30.250Z,4.19
2019-04-23T00:06:10.304Z,4.15
2019-04-23T00:08:36.536Z,4.28
2019-04-23T00:11:08.683Z,4.45
2019-04-23T00:13:40.776Z,4.53
2019-04-23T00:16:27.658Z,4.46
2019-04-23T00:18:42.593Z,4.31
2019-04-23T00:21:34.604Z,4.22
2019-04-23T00:24:15.849Z,4.16
2019-04-23T00:26:37.009Z,4.26
2019-04-23T00:29:22.382Z,4.36
2019-04-23T00:31:44.417Z,4.32
2019-04-23T00:34:09.390Z,4.22
2019-04-23T00:36:42.334Z,4.14
2019-04-23T00:39:08.613Z,4.01
2019-04-23T00:41:44.176Z,4.01
2019-04-23T00:44:14.960Z,4.07
2019-04-23T00:46:40.116Z,4.00
2019-04-23T00:49:21.149Z,3.99
2019-04-23T00:51:56.595Z,4.05
2019-04-23T00:54:17.787Z,4.05
2019-04-23T00:56:57.042Z,3.95
2019-04-23T00:59:21.074Z,3.81
2019-04-23T01:04:27.962Z,3.44
2019-04-23T01:06:58.296Z,3.27
2019-04-23T01:09:29.299Z,3.11
2019-04-23T01:12:00.924Z,3.05
2019-04-23T01:14:28.969Z,3.04
2019-04-23T01:17:02.198Z,3.36
2019-04-23T01:19:37.291Z,3.59
2019-04-23T01:21:54.027Z,3.78
2019-04-23T01:25:09.767Z,3.78
2019-04-23T01:28:02.521Z,3.63
2019-04-23T01:30:34.322Z,3.35
2019-04-23T01:33:03.371Z,3.16
2019-04-23T01:35:36.419Z,3.05
2019-04-23T01:38:06.073Z,2.97
2019-04-23T01:40:39.426Z,3.78
2019-04-23T01:43:08.011Z,3.74
2019-04-23T01:45:54.468Z,3.79
2019-04-23T01:48:04.685Z,3.78
2019-04-23T01:50:48.361Z,3.77
2019-04-23T01:53:24.019Z,3.76
2019-04-23T01:55:47.287Z,3.72
2019-04-23T02:00:47.912Z,3.81
2019-04-23T02:03:20.806Z,3.86
2019-04-23T02:05:55.531Z,3.95
2019-04-23T02:08:20.416Z,4.55
2019-04-23T02:10:58.854Z,4.66
2019-04-23T02:13:31.170Z,4.82
2019-04-23T02:15:53.401Z,5.34
2019-04-23T02:18:41.527Z,5.52
2019-04-23T02:21:04.651Z,5.72
2019-04-23T02:23:44.372Z,5.79
2019-04-23T02:26:30.046Z,5.79
2019-04-23T02:29:03.663Z,5.65
2019-04-23T02:34:31.252Z,5.20
2019-04-23T02:37:06.772Z,5.06
2019-04-23T02:39:51.491Z,5.07
2019-04-23T02:42:43.291Z,5.16
2019-04-23T02:45:09.430Z,5.11
2019-04-23T02:47:44.026Z,5.12
2019-04-23T02:50:34.931Z,5.47
2019-04-23T02:52:49.405Z,6.03
2019-04-23T02:55:17.741Z,6.19
2019-04-23T02:57:44.175Z,6.31
2019-04-23T03:05:40.229Z,6.71
2019-04-23T03:08:00.633Z,6.79
2019-04-23T03:10:20.451Z,6.81
2019-04-23T03:15:52.248Z,7.01
2019-04-23T03:23:49.924Z,7.32
2019-04-23T03:26:09.115Z,7.25
2019-04-23T03:34:38.374Z,7.48
2019-04-23T03:48:47.686Z,7.59
2019-04-23T03:51:16.257Z,7.58
2019-04-23T03:53:54.345Z,7.55
2019-04-23T03:56:29.457Z,7.50
2019-04-23T04:06:43.670Z,7.70
2019-04-23T04:11:20.636Z,7.89
2019-04-23T04:14:12.154Z,7.89
2019-04-23T04:16:28.385Z,7.93
2019-04-23T04:21:34.478Z,8.00
2019-04-23T04:29:11.705Z,8.55
2019-04-23T04:31:43.015Z,8.59
2019-04-23T04:34:30.976Z,8.55
2019-04-23T04:36:45.929Z,8.61
2019-04-23T04:38:59.126Z,8.71
2019-04-23T04:41:44.099Z,8.83
2019-04-23T04:44:30.967Z,9.21
2019-04-23T04:46:45.583Z,9.73
2019-04-23T04:49:12.066Z,10.00
2019-04-23T04:52:01.110Z,10.11
2019-04-23T04:54:21.598Z,10.24
2019-04-23T04:56:42.720Z,10.38
2019-04-23T05:02:01.208Z,10.85
2019-04-23T05:07:02.552Z,11.04
2019-04-23T05:19:45.145Z,12.60
2019-04-23T05:24:31.802Z,12.76
2019-04-23T05:26:59.718Z,12.93
2019-04-23T05:29:30.600Z,13.21
2019-04-23T05:31:59.324Z,13.46
2019-04-23T05:37:00.096Z,13.83
2019-04-23T05:39:35.260Z,14.08
2019-04-23T05:42:07.176Z,14.16
2019-04-23T05:44:41.711Z,14.60
2019-04-23T05:49:42.478Z,13.99
2019-04-23T05:52:09.578Z,14.44
2019-04-23T05:57:12.257Z,15.25
2019-04-23T05:59:41.903Z,15.72
2019-04-23T06:02:11.533Z,16.12
2019-04-23T06:04:43.153Z,16.19
2019-04-23T06:09:53.184Z,15.97
2019-04-23T06:12:19.038Z,16.24
2019-04-23T06:14:55.557Z,16.17
2019-04-23T06:17:27.342Z,16.08
2019-04-23T06:19:57.031Z,15.96
2019-04-23T06:22:28.994Z,15.39
2019-04-23T06:25:09.324Z,15.91
2019-04-23T06:27:27.667Z,16.12
2019-04-23T06:29:57.428Z,16.15
2019-04-23T06:32:34.129Z,16.53
2019-04-23T06:34:56.894Z,16.32
2019-04-23T06:39:59.847Z,17.08
2019-04-23T06:42:34.837Z,17.48
2019-04-23T06:45:07.184Z,16.56
2019-04-23T06:47:37.533Z,16.35
2019-04-23T06:50:03.576Z,16.25
2019-04-23T06:52:31.875Z,16.25
2019-04-23T06:55:17.847Z,16.54
2019-04-23T06:57:38.400Z,16.54
2019-04-23T07:00:17.588Z,16.63
2019-04-23T07:02:50.410Z,16.09
2019-04-23T07:05:15.816Z,16.09
2019-04-23T07:10:20.378Z,16.88
2019-04-23T07:12:49.257Z,16.33
2019-04-23T07:15:33.645Z,16.81
2019-04-23T07:17:51.527Z,16.56
2019-04-23T07:20:25.251Z,16.58
2019-04-23T07:22:56.956Z,16.02
2019-04-23T07:25:29.576Z,16.95
2019-04-23T07:27:59.067Z,17.09
2019-04-23T07:30:29.702Z,17.09
2019-04-23T07:33:01.840Z,17.27
2019-04-23T07:35:25.020Z,17.79
2019-04-23T07:38:01.847Z,18.13
2019-04-23T07:40:32.605Z,17.60
2019-04-23T07:43:31.709Z,17.57
2019-04-23T07:46:30.584Z,18.46
2019-04-23T07:48:45.806Z,18.00
2019-04-23T07:51:19.490Z,18.86
2019-04-23T07:54:05.923Z,18.54
2019-04-23T07:56:24.117Z,18.04
2019-04-23T07:58:57.029Z,18.03
2019-04-23T08:01:17.509Z,18.17
2019-04-23T08:03:59.273Z,17.08
2019-04-23T08:06:21.575Z,18.11
2019-04-23T08:08:58.050Z,18.04
2019-04-23T08:14:04.816Z,18.05
2019-04-23T08:19:00.122Z,17.70
2019-04-23T08:21:40.267Z,17.38
2019-04-23T08:24:38.074Z,16.96
2019-04-23T08:29:36.151Z,17.65
2019-04-23T08:32:16.471Z,18.34
2019-04-23T08:39:46.465Z,17.28
2019-04-23T08:45:22.674Z,17.74
2019-04-23T08:48:18.734Z,17.40
2019-04-23T08:50:37.169Z,16.85
2019-04-23T08:53:27.544Z,17.76
2019-04-23T08:55:49.867Z,17.95
2019-04-23T08:58:23.585Z,17.85
2019-04-23T09:00:52.661Z,17.69
2019-04-23T09:03:25.246Z,17.34
2019-04-23T09:05:53.043Z,18.00
2019-04-23T09:08:23.396Z,17.20
2019-04-23T09:10:56.786Z,17.61
2019-04-23T09:13:50.131Z,18.25
2019-04-23T09:15:56.204Z,17.64
2019-04-23T09:20:58.081Z,17.67
2019-04-23T09:23:34.477Z,17.71
2019-04-23T09:25:57.850Z,17.25
2019-04-23T09:31:17.316Z,17.35
2019-04-23T09:36:58.163Z,17.07
2019-04-23T09:39:58.919Z,16.67
2019-04-23T09:50:42.074Z,16.87
2019-04-23T09:53:19.122Z,17.18
2019-04-23T09:55:41.647Z,17.65
2019-04-23T09:58:11.910Z,17.06
2019-04-23T10:03:07.603Z,16.44
2019-04-23T10:05:33.646Z,17.01
2019-04-23T10:08:02.891Z,16.76
2019-04-23T10:10:26.137Z,16.81
2019-04-23T10:12:55.799Z,16.89
2019-04-23T10:15:31.420Z,16.11
2019-04-23T10:17:58.158Z,15.71
2019-04-23T10:20:28.970Z,15.75
2019-04-23T10:23:00.033Z,16.79
2019-04-23T10:25:30.168Z,16.01
2019-04-23T10:28:04.961Z,16.05
2019-04-23T10:30:31.211Z,17.00
2019-04-23T10:33:01.407Z,16.35
2019-04-23T10:35:41.455Z,16.83
2019-04-23T10:38:06.331Z,17.68
2019-04-23T10:40:38.013Z,16.30
2019-04-23T10:43:05.439Z,16.75
2019-04-23T10:46:28.336Z,16.51
2019-04-23T10:49:50.856Z,16.72
2019-04-23T10:52:04.908Z,16.52
2019-04-23T10:54:38.922Z,16.03
2019-04-23T10:57:01.806Z,16.36
2019-04-23T10:59:40.386Z,16.92
2019-04-23T11:02:31.627Z,17.13
2019-04-23T11:10:05.815Z,15.93
2019-04-23T11:13:11.757Z,17.21
2019-04-23T11:15:33.753Z,16.03
2019-04-23T11:17:52.412Z,15.39
2019-04-23T11:28:11.781Z,12.05
2019-04-23T11:38:36.937Z,11.78
2019-04-23T11:40:56.677Z,11.25
2019-04-23T11:43:14.703Z,11.71
2019-04-23T11:48:33.036Z,11.86
2019-04-23T11:53:20.514Z,11.83
2019-04-23T11:55:54.036Z,11.90
2019-04-23T11:58:37.643Z,11.87
2019-04-23T12:07:14.827Z,11.74
2019-04-23T12:09:50.066Z,11.97
2019-04-23T12:14:47.277Z,11.57
2019-04-23T12:20:06.403Z,11.54
2019-04-23T12:22:30.138Z,11.63
2019-04-23T12:27:27.555Z,11.64
2019-04-23T12:30:03.555Z,11.50
2019-04-23T12:38:15.442Z,11.56
2019-04-23T12:40:38.283Z,11.55
2019-04-23T12:43:17.865Z,11.52
2019-04-23T12:48:31.251Z,11.38
2019-04-23T12:53:29.348Z,11.22
2019-04-23T12:58:26.744Z,11.52
2019-04-23T13:00:48.105Z,11.45
2019-04-23T13:03:25.424Z,11.28
2019-04-23T13:05:47.696Z,11.22
2019-04-23T13:08:36.126Z,11.28
2019-04-23T13:11:03.465Z,11.17
2019-04-23T13:13:31.505Z,11.27
2019-04-23T13:16:06.399Z,11.18
2019-04-23T13:18:31.877Z,11.28
2019-04-23T13:21:17.730Z,11.32
2019-04-23T13:25:59.698Z,11.14
2019-04-23T13:28:38.835Z,11.07
2019-04-23T13:33:53.560Z,11.01
2019-04-23T13:36:18.956Z,11.00
2019-04-23T13:38:41.793Z,11.01
2019-04-23T13:41:23.160Z,11.12
2019-04-23T13:46:28.763Z,11.27
2019-04-23T13:48:42.203Z,11.09
2019-04-23T13:51:21.141Z,11.13
2019-04-23T13:53:53.623Z,11.03
2019-04-23T13:56:31.587Z,11.15
2019-04-23T13:58:59.672Z,11.19
2019-04-23T14:04:11.948Z,11.17
2019-04-23T14:06:35.133Z,11.21
2019-04-23T14:16:48.507Z,11.28
2019-04-23T14:19:13.012Z,11.33
2019-04-23T14:21:39.166Z,11.31
2019-04-23T14:25:01.151Z,11.33
2019-04-23T14:26:34.937Z,11.30
2019-04-23T14:29:07.286Z,11.12
2019-04-23T14:31:37.099Z,11.09
2019-04-23T14:36:42.562Z,11.21
2019-04-23T14:39:22.051Z,11.20
2019-04-23T14:41:46.081Z,11.10
2019-04-23T14:44:19.747Z,11.14
2019-04-23T14:46:58.438Z,11.21
2019-04-23T14:49:40.878Z,11.15
2019-04-23T14:55:06.012Z,11.06
2019-04-23T14:57:09.438Z,11.09
2019-04-23T14:59:32.193Z,11.10
2019-04-23T15:02:14.481Z,11.10
2019-04-23T15:04:43.675Z,11.02
2019-04-23T15:07:16.850Z,11.02
2019-04-23T15:09:53.527Z,10.98
2019-04-23T15:12:22.581Z,10.96
2019-04-23T15:14:51.234Z,10.93
2019-04-23T15:17:20.553Z,10.98
2019-04-23T15:20:08.170Z,10.88
2019-04-23T15:22:21.650Z,10.88
2019-04-23T15:25:01.377Z,10.82
2019-04-23T15:29:49.196Z,10.71
2019-04-23T15:32:40.160Z,10.70
2019-04-23T15:35:05.374Z,10.63
2019-04-23T15:37:45.178Z,10.70
2019-04-23T15:40:11.079Z,10.61
2019-04-23T15:42:32.951Z,10.69
2019-04-23T15:45:01.360Z,10.77
2019-04-23T15:47:40.479Z,10.82
2019-04-23T15:50:10.914Z,10.73
2019-04-23T15:52:44.340Z,10.53
2019-04-23T16:00:05.403Z,10.43
2019-04-23T16:02:11.832Z,10.47
2019-04-23T16:04:41.137Z,10.45
2019-04-23T16:07:16.462Z,10.29
2019-04-23T16:12:49.173Z,10.41
2019-04-23T16:17:45.163Z,10.47
2019-04-23T16:20:28.802Z,10.37
2019-04-23T16:22:44.403Z,10.34
2019-04-23T16:25:17.419Z,10.22
2019-04-23T16:27:57.650Z,10.18
2019-04-23T16:40:47.555Z,9.99
2019-04-23T16:43:19.858Z,10.02
2019-04-23T16:51:12.315Z,10.24
2019-04-23T16:53:27.488Z,10.13
2019-04-23T16:56:04.131Z,9.96
2019-04-23T16:58:33.722Z,9.89
2019-04-23T17:03:31.374Z,9.79
2019-04-23T17:06:21.827Z,9.81
2019-04-23T17:08:53.953Z,9.83
2019-04-23T17:11:13.061Z,9.83
2019-04-23T17:13:59.088Z,9.81
2019-04-23T17:18:41.826Z,9.83
2019-04-23T17:21:24.220Z,9.86
2019-04-23T17:23:53.196Z,9.93
2019-04-23T17:28:44.913Z,9.74
2019-04-23T17:39:14.522Z,9.72
2019-04-23T17:42:19.641Z,9.73
2019-04-23T17:47:24.473Z,9.59
2019-04-23T17:50:01.582Z,9.59
2019-04-23T17:52:26.263Z,9.53
2019-04-23T17:54:59.772Z,9.51
2019-04-23T17:57:22.913Z,9.51
2019-04-23T18:00:11.540Z,9.50
2019-04-23T18:05:02.814Z,9.49
2019-04-23T18:07:46.547Z,9.48
2019-04-23T18:10:14.950Z,9.52
2019-04-23T18:15:14.888Z,9.65
2019-04-23T18:17:35.430Z,9.67
2019-04-23T18:20:22.994Z,9.62
2019-04-23T18:23:00.343Z,9.54
2019-04-23T18:25:32.372Z,9.44
2019-04-23T18:28:01.781Z,9.38
2019-04-23T18:31:06.189Z,9.37
2019-04-23T18:34:01.887Z,9.37
2019-04-23T18:36:18.431Z,9.30
2019-04-23T18:38:53.097Z,9.25
2019-04-23T18:41:17.532Z,9.29
2019-04-23T18:43:57.082Z,9.29
2019-04-23T18:46:35.549Z,9.29
2019-04-23T18:49:13.174Z,9.29
2019-04-23T18:51:27.081Z,9.24
2019-04-23T18:53:54.506Z,9.18
2019-04-23T18:56:53.420Z,9.13
2019-04-23T18:59:21.464Z,9.09
2019-04-23T19:01:47.764Z,9.09
2019-04-23T19:04:39.092Z,9.14
2019-04-23T19:07:27.509Z,9.23
2019-04-23T19:13:07.284Z,9.45
2019-04-23T19:15:38.128Z,9.25
2019-04-23T19:17:56.420Z,9.12
2019-04-23T19:20:53.849Z,9.02
2019-04-23T19:23:16.248Z,9.02
2019-04-23T19:25:51.730Z,9.08
2019-04-23T19:28:26.736Z,9.12
2019-04-23T19:33:41.887Z,9.01
2019-04-23T19:36:20.264Z,8.96
2019-04-23T19:41:03.833Z,9.04
2019-04-23T19:43:41.551Z,9.04
2019-04-23T19:46:13.994Z,8.94
2019-04-23T19:48:48.729Z,8.75
2019-04-23T19:51:09.546Z,8.73
2019-04-23T19:58:44.899Z,8.68
2019-04-23T20:03:49.758Z,8.68
2019-04-23T20:06:27.363Z,8.79
2019-04-23T20:09:17.604Z,8.90
2019-04-23T20:21:19.479Z,8.88
2019-04-23T20:24:04.836Z,8.93
2019-04-23T20:26:21.658Z,8.90
2019-04-23T20:29:34.573Z,8.77
2019-04-23T20:34:55.794Z,8.60
2019-04-23T20:37:32.107Z,8.54
2019-04-23T20:40:06.972Z,8.51
2019-04-23T20:42:27.444Z,8.52
2019-04-23T20:44:59.047Z,8.54
2019-04-23T20:47:23.042Z,8.62
2019-04-23T20:49:48.349Z,8.68
2019-04-23T20:52:13.864Z,8.75
2019-04-23T20:55:01.963Z,8.81
2019-04-23T21:00:12.308Z,8.87
2019-04-23T21:05:27.905Z,8.72
2019-04-23T21:13:16.032Z,8.65
2019-04-23T21:15:52.700Z,8.64
2019-04-23T21:18:15.763Z,8.72
2019-04-23T21:20:40.130Z,8.75
2019-04-23T21:23:14.555Z,8.75
2019-04-23T21:25:47.479Z,8.75
2019-04-23T21:39:24.644Z,8.63
2019-04-23T21:42:09.654Z,8.54
2019-04-23T21:44:32.778Z,8.49
2019-04-23T21:47:08.906Z,8.49
2019-04-23T21:49:50.618Z,8.45
2019-04-23T21:52:11.492Z,8.48
2019-04-23T21:54:44.163Z,8.46
2019-04-23T21:57:08.827Z,8.54
2019-04-23T21:59:41.526Z,8.60
2019-04-23T22:02:13.441Z,8.56
2019-04-23T22:04:47.657Z,8.55
2019-04-23T22:07:16.260Z,8.48
2019-04-23T22:09:55.546Z,8.47
2019-04-23T22:12:19.597Z,8.49
2019-04-23T22:14:50.865Z,8.47
2019-04-23T22:20:10.899Z,8.44
2019-04-23T22:22:28.625Z,8.48
2019-04-23T22:24:54.684Z,8.53
2019-04-23T22:27:28.205Z,8.50
2019-04-23T22:29:54.050Z,8.50
2019-04-23T22:32:30.767Z,8.50
2019-04-23T22:35:00.486Z,8.58
2019-04-23T22:37:48.107Z,8.56
2019-04-23T22:39:59.028Z,8.47
2019-04-23T22:42:58.199Z,8.43
2019-04-23T22:47:44.443Z,8.49
2019-04-23T22:50:05.863Z,8.58
2019-04-23T22:52:40.837Z,8.65
2019-04-23T22:55:07.742Z,8.64
2019-04-23T22:58:08.062Z,8.65
2019-04-23T23:00:14.324Z,8.59
2019-04-23T23:02:58.339Z,8.60
2019-04-23T23:08:03.030Z,8.70
2019-04-23T23:10:44.311Z,8.80
2019-04-23T23:13:16.510Z,8.82
2019-04-23T23:15:32.830Z,8.74
2019-04-23T23:18:07.307Z,8.71
2019-04-23T23:20:29.545Z,8.71
2019-04-23T23:23:13.081Z,8.78
2019-04-23T23:25:33.488Z,8.93
2019-04-23T23:28:26.125Z,9.04
2019-04-23T23:30:52.029Z,9.01
2019-04-23T23:33:11.217Z,8.95
2019-04-23T23:35:37.116Z,9.02
2019-04-23T23:38:14.813Z,9.00
2019-04-23T23:41:03.741Z,8.98
2019-04-23T23:43:23.517Z,8.86
2019-04-23T23:48:13.108Z,9.07
2019-04-23T23:50:55.058Z,9.03
2019-04-23T23:53:32.883Z,9.03
2019-04-23T23:55:58.815Z,9.02
2019-04-23T23:58:23.664Z,9.01
